sensor_id;sensor_type;location;lat;lon;timestamp;temperature;humidity
18597;DHT22;9428;50.950;6.912;2024-01-30T00:01:02;9.10;99.90
18597;DHT22;9428;50.950;6.912;2024-01-30T00:03:49;9.10;99.90
18597;DHT22;9428;50.950;6.912;2024-01-30T00:06:37;9.10;99.90
18597;DHT22;9428;50.950;6.912;2024-01-30T00:09:24;9.10;99.90
18597;DHT22;9428;50.950;6.912;2024-01-30T00:12:12;9.10;99.90
18597;DHT22;9428;50.950;6.912;2024-01-30T00:14:59;9.10;99.90
18597;DHT22;9428;50.950;6.912;2024-01-30T00:17:48;9.00;99.90
18597;DHT22;9428;50.950;6.912;2024-01-30T00:20:40;9.00;99.90
18597;DHT22;9428;50.950;6.912;2024-01-30T00:23:31;9.00;99.90
18597;DHT22;9428;50.950;6.912;2024-01-30T00:26:27;9.00;99.90
18597;DHT22;9428;50.950;6.912;2024-01-30T00:29:15;9.00;99.90
18597;DHT22;9428;50.950;6.912;2024-01-30T00:32:06;9.00;99.90
18597;DHT22;9428;50.950;6.912;2024-01-30T00:34:54;9.00;99.90
18597;DHT22;9428;50.950;6.912;2024-01-30T00:37:42;8.50;99.90
18597;DHT22;9428;50.950;6.912;2024-01-30T00:40:32;8.90;99.90
18597;DHT22;9428;50.950;6.912;2024-01-30T00:43:19;9.00;99.90
18597;DHT22;9428;50.950;6.912;2024-01-30T00:46:09;9.00;99.90
18597;DHT22;9428;50.950;6.912;2024-01-30T00:48:57;8.90;99.90
18597;DHT22;9428;50.950;6.912;2024-01-30T00:51:46;8.90;99.90
18597;DHT22;9428;50.950;6.912;2024-01-30T00:54:34;8.80;99.90
18597;DHT22;9428;50.950;6.912;2024-01-30T00:57:21;8.90;99.90
18597;DHT22;9428;50.950;6.912;2024-01-30T01:00:09;8.60;99.90
18597;DHT22;9428;50.950;6.912;2024-01-30T01:02:57;8.80;99.90
18597;DHT22;9428;50.950;6.912;2024-01-30T01:05:44;8.90;99.90
18597;DHT22;9428;50.950;6.912;2024-01-30T01:08:33;8.90;99.90
18597;DHT22;9428;50.950;6.912;2024-01-30T01:11:21;8.80;99.90
18597;DHT22;9428;50.950;6.912;2024-01-30T01:14:08;8.90;99.90
18597;DHT22;9428;50.950;6.912;2024-01-30T01:16:56;8.80;99.90
18597;DHT22;9428;50.950;6.912;2024-01-30T01:19:43;8.80;99.90
18597;DHT22;9428;50.950;6.912;2024-01-30T01:22:31;8.80;99.90
18597;DHT22;9428;50.950;6.912;2024-01-30T01:25:19;8.90;99.90
18597;DHT22;9428;50.950;6.912;2024-01-30T01:28:07;8.90;99.90
18597;DHT22;9428;50.950;6.912;2024-01-30T01:30:55;8.90;99.90
18597;DHT22;9428;50.950;6.912;2024-01-30T01:33:45;8.90;99.90
18597;DHT22;9428;50.950;6.912;2024-01-30T01:36:32;8.90;99.90
18597;DHT22;9428;50.950;6.912;2024-01-30T01:39:23;8.90;99.90
18597;DHT22;9428;50.950;6.912;2024-01-30T01:42:12;8.90;99.90
18597;DHT22;9428;50.950;6.912;2024-01-30T01:44:59;9.00;99.90
18597;DHT22;9428;50.950;6.912;2024-01-30T01:47:48;9.00;99.90
18597;DHT22;9428;50.950;6.912;2024-01-30T01:50:37;9.00;99.90
18597;DHT22;9428;50.950;6.912;2024-01-30T01:53:25;9.70;99.90
18597;DHT22;9428;50.950;6.912;2024-01-30T01:56:14;9.00;99.90
18597;DHT22;9428;50.950;6.912;2024-01-30T01:59:05;9.70;99.90
18597;DHT22;9428;50.950;6.912;2024-01-30T02:01:54;9.00;99.90
18597;DHT22;9428;50.950;6.912;2024-01-30T02:04:42;9.20;99.90
18597;DHT22;9428;50.950;6.912;2024-01-30T02:07:30;9.00;99.90
18597;DHT22;9428;50.950;6.912;2024-01-30T02:10:17;8.80;99.90
18597;DHT22;9428;50.950;6.912;2024-01-30T02:13:05;9.00;99.90
18597;DHT22;9428;50.950;6.912;2024-01-30T02:15:53;8.90;99.90
18597;DHT22;9428;50.950;6.912;2024-01-30T02:18:41;8.90;99.90
18597;DHT22;9428;50.950;6.912;2024-01-30T02:21:32;8.30;99.90
18597;DHT22;9428;50.950;6.912;2024-01-30T02:24:20;9.00;99.90
18597;DHT22;9428;50.950;6.912;2024-01-30T02:27:07;8.80;99.90
18597;DHT22;9428;50.950;6.912;2024-01-30T02:29:55;8.90;99.90
18597;DHT22;9428;50.950;6.912;2024-01-30T02:32:42;8.90;99.90
18597;DHT22;9428;50.950;6.912;2024-01-30T02:35:30;9.00;99.90
18597;DHT22;9428;50.950;6.912;2024-01-30T02:38:18;9.00;99.90
18597;DHT22;9428;50.950;6.912;2024-01-30T02:41:06;9.00;99.90
18597;DHT22;9428;50.950;6.912;2024-01-30T02:43:54;8.90;99.90
18597;DHT22;9428;50.950;6.912;2024-01-30T02:46:41;8.90;99.90
18597;DHT22;9428;50.950;6.912;2024-01-30T02:49:28;9.00;99.90
18597;DHT22;9428;50.950;6.912;2024-01-30T02:52:16;8.90;99.90
18597;DHT22;9428;50.950;6.912;2024-01-30T02:55:06;8.90;99.90
18597;DHT22;9428;50.950;6.912;2024-01-30T02:57:54;9.00;99.90
18597;DHT22;9428;50.950;6.912;2024-01-30T03:00:41;9.00;99.90
18597;DHT22;9428;50.950;6.912;2024-01-30T03:03:29;8.90;99.90
18597;DHT22;9428;50.950;6.912;2024-01-30T03:06:17;8.10;99.90
18597;DHT22;9428;50.950;6.912;2024-01-30T03:09:06;9.00;99.90
18597;DHT22;9428;50.950;6.912;2024-01-30T03:11:59;8.90;99.90
18597;DHT22;9428;50.950;6.912;2024-01-30T03:14:47;9.00;99.90
18597;DHT22;9428;50.950;6.912;2024-01-30T03:17:35;8.90;99.90
18597;DHT22;9428;50.950;6.912;2024-01-30T03:20:24;9.00;99.90
18597;DHT22;9428;50.950;6.912;2024-01-30T03:23:14;9.00;99.90
18597;DHT22;9428;50.950;6.912;2024-01-30T03:26:07;9.00;99.90
18597;DHT22;9428;50.950;6.912;2024-01-30T03:28:56;9.00;99.90
18597;DHT22;9428;50.950;6.912;2024-01-30T03:31:46;9.00;99.90
18597;DHT22;9428;50.950;6.912;2024-01-30T03:34:36;8.90;99.90
18597;DHT22;9428;50.950;6.912;2024-01-30T03:37:23;8.90;99.90
18597;DHT22;9428;50.950;6.912;2024-01-30T03:40:11;8.90;99.90
18597;DHT22;9428;50.950;6.912;2024-01-30T03:42:59;8.90;99.90
18597;DHT22;9428;50.950;6.912;2024-01-30T03:45:47;8.90;99.90
18597;DHT22;9428;50.950;6.912;2024-01-30T03:48:35;8.90;99.90
18597;DHT22;9428;50.950;6.912;2024-01-30T03:51:25;8.90;99.90
18597;DHT22;9428;50.950;6.912;2024-01-30T03:54:15;8.80;99.90
18597;DHT22;9428;50.950;6.912;2024-01-30T03:57:03;8.90;99.90
18597;DHT22;9428;50.950;6.912;2024-01-30T03:59:51;8.90;99.90
18597;DHT22;9428;50.950;6.912;2024-01-30T04:02:42;8.80;99.90
18597;DHT22;9428;50.950;6.912;2024-01-30T04:05:29;8.90;99.90
18597;DHT22;9428;50.950;6.912;2024-01-30T04:08:20;8.80;99.90
18597;DHT22;9428;50.950;6.912;2024-01-30T04:11:08;8.80;99.90
18597;DHT22;9428;50.950;6.912;2024-01-30T04:13:57;8.80;99.90
18597;DHT22;9428;50.950;6.912;2024-01-30T04:16:45;8.80;99.90
18597;DHT22;9428;50.950;6.912;2024-01-30T04:19:37;8.80;99.90
18597;DHT22;9428;50.950;6.912;2024-01-30T04:22:27;8.70;99.90
18597;DHT22;9428;50.950;6.912;2024-01-30T04:25:16;8.70;99.90
18597;DHT22;9428;50.950;6.912;2024-01-30T04:28:06;8.70;99.90
18597;DHT22;9428;50.950;6.912;2024-01-30T04:30:54;8.70;99.90
18597;DHT22;9428;50.950;6.912;2024-01-30T04:33:51;8.70;99.90
18597;DHT22;9428;50.950;6.912;2024-01-30T04:36:39;8.70;99.90
18597;DHT22;9428;50.950;6.912;2024-01-30T04:39:27;8.60;99.90
18597;DHT22;9428;50.950;6.912;2024-01-30T04:42:14;8.50;99.90
18597;DHT22;9428;50.950;6.912;2024-01-30T04:45:10;8.60;99.90
18597;DHT22;9428;50.950;6.912;2024-01-30T04:47:58;8.60;99.90
18597;DHT22;9428;50.950;6.912;2024-01-30T04:50:47;8.60;99.90
18597;DHT22;9428;50.950;6.912;2024-01-30T04:53:38;8.70;99.90
18597;DHT22;9428;50.950;6.912;2024-01-30T04:56:26;8.60;99.90
18597;DHT22;9428;50.950;6.912;2024-01-30T04:59:13;8.60;99.90
18597;DHT22;9428;50.950;6.912;2024-01-30T05:02:00;8.70;99.90
18597;DHT22;9428;50.950;6.912;2024-01-30T05:04:51;8.60;99.90
18597;DHT22;9428;50.950;6.912;2024-01-30T05:07:42;8.70;99.90
18597;DHT22;9428;50.950;6.912;2024-01-30T05:10:33;9.60;99.90
18597;DHT22;9428;50.950;6.912;2024-01-30T05:13:21;8.60;99.90
18597;DHT22;9428;50.950;6.912;2024-01-30T05:16:11;8.60;99.90
18597;DHT22;9428;50.950;6.912;2024-01-30T05:19:08;8.60;99.90
18597;DHT22;9428;50.950;6.912;2024-01-30T05:22:01;8.60;99.90
18597;DHT22;9428;50.950;6.912;2024-01-30T05:24:50;8.70;99.90
18597;DHT22;9428;50.950;6.912;2024-01-30T05:27:39;8.60;99.90
18597;DHT22;9428;50.950;6.912;2024-01-30T05:30:27;8.20;99.90
18597;DHT22;9428;50.950;6.912;2024-01-30T05:33:14;8.80;99.90
18597;DHT22;9428;50.950;6.912;2024-01-30T05:36:02;8.40;99.90
18597;DHT22;9428;50.950;6.912;2024-01-30T05:38:50;8.50;99.90
18597;DHT22;9428;50.950;6.912;2024-01-30T05:41:37;8.60;99.90
18597;DHT22;9428;50.950;6.912;2024-01-30T05:44:26;8.50;99.90
18597;DHT22;9428;50.950;6.912;2024-01-30T05:47:13;8.50;99.90
18597;DHT22;9428;50.950;6.912;2024-01-30T05:50:01;8.50;99.90
18597;DHT22;9428;50.950;6.912;2024-01-30T05:52:49;8.50;99.90
18597;DHT22;9428;50.950;6.912;2024-01-30T05:55:36;8.50;99.90
18597;DHT22;9428;50.950;6.912;2024-01-30T05:58:24;8.50;99.90
18597;DHT22;9428;50.950;6.912;2024-01-30T06:01:13;8.50;99.90
18597;DHT22;9428;50.950;6.912;2024-01-30T06:04:01;8.50;99.90
18597;DHT22;9428;50.950;6.912;2024-01-30T06:06:51;8.40;99.90
18597;DHT22;9428;50.950;6.912;2024-01-30T06:09:39;8.40;99.90
18597;DHT22;9428;50.950;6.912;2024-01-30T06:12:27;8.50;99.90
18597;DHT22;9428;50.950;6.912;2024-01-30T06:15:14;8.40;99.90
18597;DHT22;9428;50.950;6.912;2024-01-30T06:18:04;8.40;99.90
18597;DHT22;9428;50.950;6.912;2024-01-30T06:20:51;8.40;99.90
18597;DHT22;9428;50.950;6.912;2024-01-30T06:23:39;8.50;99.90
18597;DHT22;9428;50.950;6.912;2024-01-30T06:26:26;8.50;99.90
18597;DHT22;9428;50.950;6.912;2024-01-30T06:29:14;8.40;99.90
18597;DHT22;9428;50.950;6.912;2024-01-30T06:32:02;8.40;99.90
18597;DHT22;9428;50.950;6.912;2024-01-30T06:34:52;8.50;99.90
18597;DHT22;9428;50.950;6.912;2024-01-30T06:37:39;8.50;99.90
18597;DHT22;9428;50.950;6.912;2024-01-30T06:40:27;8.60;99.90
18597;DHT22;9428;50.950;6.912;2024-01-30T06:43:14;8.50;99.90
18597;DHT22;9428;50.950;6.912;2024-01-30T06:46:04;8.50;99.90
18597;DHT22;9428;50.950;6.912;2024-01-30T06:48:51;8.50;99.90
18597;DHT22;9428;50.950;6.912;2024-01-30T06:51:40;8.60;99.90
18597;DHT22;9428;50.950;6.912;2024-01-30T06:54:28;8.50;99.90
18597;DHT22;9428;50.950;6.912;2024-01-30T06:57:18;8.60;99.90
18597;DHT22;9428;50.950;6.912;2024-01-30T07:00:07;8.60;99.90
18597;DHT22;9428;50.950;6.912;2024-01-30T07:02:54;7.80;99.90
18597;DHT22;9428;50.950;6.912;2024-01-30T07:05:42;8.40;99.90
18597;DHT22;9428;50.950;6.912;2024-01-30T07:08:31;8.60;99.90
18597;DHT22;9428;50.950;6.912;2024-01-30T07:11:19;8.60;99.90
18597;DHT22;9428;50.950;6.912;2024-01-30T07:14:09;8.60;99.90
18597;DHT22;9428;50.950;6.912;2024-01-30T07:16:56;8.10;99.90
18597;DHT22;9428;50.950;6.912;2024-01-30T07:19:43;8.60;99.90
18597;DHT22;9428;50.950;6.912;2024-01-30T07:22:31;8.60;99.90
18597;DHT22;9428;50.950;6.912;2024-01-30T07:25:20;8.60;99.90
18597;DHT22;9428;50.950;6.912;2024-01-30T07:28:12;8.60;99.90
18597;DHT22;9428;50.950;6.912;2024-01-30T07:31:02;8.60;99.90
18597;DHT22;9428;50.950;6.912;2024-01-30T07:33:51;8.60;99.90
18597;DHT22;9428;50.950;6.912;2024-01-30T07:36:39;8.70;99.90
18597;DHT22;9428;50.950;6.912;2024-01-30T07:39:26;8.90;99.90
18597;DHT22;9428;50.950;6.912;2024-01-30T07:42:15;8.60;99.90
18597;DHT22;9428;50.950;6.912;2024-01-30T07:45:04;7.80;99.90
18597;DHT22;9428;50.950;6.912;2024-01-30T07:47:52;8.70;99.90
18597;DHT22;9428;50.950;6.912;2024-01-30T07:50:39;8.50;99.90
18597;DHT22;9428;50.950;6.912;2024-01-30T07:53:27;8.70;99.90
18597;DHT22;9428;50.950;6.912;2024-01-30T07:56:14;8.70;99.90
18597;DHT22;9428;50.950;6.912;2024-01-30T07:59:03;9.30;99.90
18597;DHT22;9428;50.950;6.912;2024-01-30T08:01:50;8.90;99.90
18597;DHT22;9428;50.950;6.912;2024-01-30T08:04:38;8.80;99.90
18597;DHT22;9428;50.950;6.912;2024-01-30T08:07:28;8.90;99.90
18597;DHT22;9428;50.950;6.912;2024-01-30T08:10:18;8.90;99.90
18597;DHT22;9428;50.950;6.912;2024-01-30T08:13:08;8.90;99.90
18597;DHT22;9428;50.950;6.912;2024-01-30T08:15:57;9.00;99.90
18597;DHT22;9428;50.950;6.912;2024-01-30T08:18:45;8.90;99.90
18597;DHT22;9428;50.950;6.912;2024-01-30T08:21:32;8.90;99.90
18597;DHT22;9428;50.950;6.912;2024-01-30T08:24:22;9.10;99.90
18597;DHT22;9428;50.950;6.912;2024-01-30T08:27:09;8.90;99.90
18597;DHT22;9428;50.950;6.912;2024-01-30T08:29:58;8.90;99.90
18597;DHT22;9428;50.950;6.912;2024-01-30T08:32:47;9.00;99.90
18597;DHT22;9428;50.950;6.912;2024-01-30T08:35:34;8.90;99.90
18597;DHT22;9428;50.950;6.912;2024-01-30T08:38:28;9.00;99.90
18597;DHT22;9428;50.950;6.912;2024-01-30T08:41:15;9.00;99.90
18597;DHT22;9428;50.950;6.912;2024-01-30T08:44:02;9.00;99.90
18597;DHT22;9428;50.950;6.912;2024-01-30T08:46:50;9.00;99.90
18597;DHT22;9428;50.950;6.912;2024-01-30T08:49:39;9.00;99.90
18597;DHT22;9428;50.950;6.912;2024-01-30T08:52:27;9.70;99.90
18597;DHT22;9428;50.950;6.912;2024-01-30T08:55:16;9.10;99.90
18597;DHT22;9428;50.950;6.912;2024-01-30T08:58:04;9.10;99.90
18597;DHT22;9428;50.950;6.912;2024-01-30T09:00:53;9.20;99.90
18597;DHT22;9428;50.950;6.912;2024-01-30T09:03:40;9.20;99.90
18597;DHT22;9428;50.950;6.912;2024-01-30T09:06:31;9.20;99.90
18597;DHT22;9428;50.950;6.912;2024-01-30T09:09:18;9.20;99.90
18597;DHT22;9428;50.950;6.912;2024-01-30T09:12:06;9.20;99.90
18597;DHT22;9428;50.950;6.912;2024-01-30T09:14:55;9.30;99.90
18597;DHT22;9428;50.950;6.912;2024-01-30T09:17:42;9.40;99.90
18597;DHT22;9428;50.950;6.912;2024-01-30T09:20:30;9.40;99.90
18597;DHT22;9428;50.950;6.912;2024-01-30T09:23:19;9.40;99.90
18597;DHT22;9428;50.950;6.912;2024-01-30T09:26:06;9.50;99.90
18597;DHT22;9428;50.950;6.912;2024-01-30T09:28:54;9.60;99.90
18597;DHT22;9428;50.950;6.912;2024-01-30T09:31:46;9.60;99.90
18597;DHT22;9428;50.950;6.912;2024-01-30T09:34:33;9.60;99.90
18597;DHT22;9428;50.950;6.912;2024-01-30T09:37:21;9.70;99.90
18597;DHT22;9428;50.950;6.912;2024-01-30T09:40:10;9.70;99.90
18597;DHT22;9428;50.950;6.912;2024-01-30T09:42:58;9.80;99.90
18597;DHT22;9428;50.950;6.912;2024-01-30T09:45:46;9.80;99.90
18597;DHT22;9428;50.950;6.912;2024-01-30T09:48:35;9.70;99.90
18597;DHT22;9428;50.950;6.912;2024-01-30T09:51:23;9.90;99.90
18597;DHT22;9428;50.950;6.912;2024-01-30T09:54:11;9.90;99.90
18597;DHT22;9428;50.950;6.912;2024-01-30T09:57:02;9.90;99.90
18597;DHT22;9428;50.950;6.912;2024-01-30T09:59:49;9.90;99.90
18597;DHT22;9428;50.950;6.912;2024-01-30T10:02:40;9.90;99.90
18597;DHT22;9428;50.950;6.912;2024-01-30T10:05:28;10.00;99.90
18597;DHT22;9428;50.950;6.912;2024-01-30T10:08:19;10.10;99.90
18597;DHT22;9428;50.950;6.912;2024-01-30T10:11:07;10.20;99.90
18597;DHT22;9428;50.950;6.912;2024-01-30T10:13:56;10.10;99.90
18597;DHT22;9428;50.950;6.912;2024-01-30T10:16:45;10.20;99.90
18597;DHT22;9428;50.950;6.912;2024-01-30T10:19:47;10.30;99.90
18597;DHT22;9428;50.950;6.912;2024-01-30T10:22:35;10.30;99.90
18597;DHT22;9428;50.950;6.912;2024-01-30T10:25:22;10.30;99.90
18597;DHT22;9428;50.950;6.912;2024-01-30T10:28:10;10.40;99.90
18597;DHT22;9428;50.950;6.912;2024-01-30T10:30:59;10.40;99.90
18597;DHT22;9428;50.950;6.912;2024-01-30T10:33:46;10.40;99.90
18597;DHT22;9428;50.950;6.912;2024-01-30T10:36:39;10.30;99.90
18597;DHT22;9428;50.950;6.912;2024-01-30T10:39:29;10.30;99.90
18597;DHT22;9428;50.950;6.912;2024-01-30T10:42:18;10.50;99.90
18597;DHT22;9428;50.950;6.912;2024-01-30T10:45:07;10.50;99.90
18597;DHT22;9428;50.950;6.912;2024-01-30T10:47:57;10.50;99.90
18597;DHT22;9428;50.950;6.912;2024-01-30T10:50:47;10.60;99.90
18597;DHT22;9428;50.950;6.912;2024-01-30T10:53:35;10.60;99.90
18597;DHT22;9428;50.950;6.912;2024-01-30T10:56:26;10.80;99.90
18597;DHT22;9428;50.950;6.912;2024-01-30T10:59:15;10.70;99.90
18597;DHT22;9428;50.950;6.912;2024-01-30T11:02:03;10.60;99.90
18597;DHT22;9428;50.950;6.912;2024-01-30T11:04:58;10.80;99.90
18597;DHT22;9428;50.950;6.912;2024-01-30T11:07:49;10.70;99.90
18597;DHT22;9428;50.950;6.912;2024-01-30T11:10:44;10.70;99.90
18597;DHT22;9428;50.950;6.912;2024-01-30T11:13:32;10.80;99.90
18597;DHT22;9428;50.950;6.912;2024-01-30T11:16:20;10.80;99.90
18597;DHT22;9428;50.950;6.912;2024-01-30T11:19:12;10.90;99.90
18597;DHT22;9428;50.950;6.912;2024-01-30T11:22:08;10.90;99.90
18597;DHT22;9428;50.950;6.912;2024-01-30T11:24:56;11.00;99.90
18597;DHT22;9428;50.950;6.912;2024-01-30T11:27:43;11.00;99.90
18597;DHT22;9428;50.950;6.912;2024-01-30T11:30:32;11.40;99.90
18597;DHT22;9428;50.950;6.912;2024-01-30T11:33:28;10.50;99.90
18597;DHT22;9428;50.950;6.912;2024-01-30T11:36:17;11.10;99.90
18597;DHT22;9428;50.950;6.912;2024-01-30T11:39:09;11.20;99.90
18597;DHT22;9428;50.950;6.912;2024-01-30T11:41:59;11.20;99.90
18597;DHT22;9428;50.950;6.912;2024-01-30T11:44:47;11.30;99.90
18597;DHT22;9428;50.950;6.912;2024-01-30T11:47:36;11.30;99.90
18597;DHT22;9428;50.950;6.912;2024-01-30T11:50:25;11.30;99.90
18597;DHT22;9428;50.950;6.912;2024-01-30T11:53:12;11.40;99.90
18597;DHT22;9428;50.950;6.912;2024-01-30T11:56:03;11.40;99.90
18597;DHT22;9428;50.950;6.912;2024-01-30T11:58:53;11.40;99.90
18597;DHT22;9428;50.950;6.912;2024-01-30T12:01:41;11.40;99.90
18597;DHT22;9428;50.950;6.912;2024-01-30T12:04:29;11.50;99.90
18597;DHT22;9428;50.950;6.912;2024-01-30T12:07:16;11.50;99.90
18597;DHT22;9428;50.950;6.912;2024-01-30T12:10:04;11.50;99.90
18597;DHT22;9428;50.950;6.912;2024-01-30T12:12:55;11.60;99.90
18597;DHT22;9428;50.950;6.912;2024-01-30T12:15:45;12.00;99.90
18597;DHT22;9428;50.950;6.912;2024-01-30T12:18:32;12.20;99.90
18597;DHT22;9428;50.950;6.912;2024-01-30T12:21:20;11.60;99.90
18597;DHT22;9428;50.950;6.912;2024-01-30T12:24:07;11.80;99.90
18597;DHT22;9428;50.950;6.912;2024-01-30T12:26:57;11.60;99.90
18597;DHT22;9428;50.950;6.912;2024-01-30T12:29:46;11.60;99.90
18597;DHT22;9428;50.950;6.912;2024-01-30T12:32:38;11.70;99.90
18597;DHT22;9428;50.950;6.912;2024-01-30T12:35:26;11.70;99.90
18597;DHT22;9428;50.950;6.912;2024-01-30T12:38:13;11.80;99.90
18597;DHT22;9428;50.950;6.912;2024-01-30T12:41:01;12.40;99.90
18597;DHT22;9428;50.950;6.912;2024-01-30T12:43:48;11.50;99.90
18597;DHT22;9428;50.950;6.912;2024-01-30T12:46:40;11.90;99.90
18597;DHT22;9428;50.950;6.912;2024-01-30T12:49:28;12.60;99.90
18597;DHT22;9428;50.950;6.912;2024-01-30T12:52:17;11.90;99.90
18597;DHT22;9428;50.950;6.912;2024-01-30T12:55:05;12.00;99.90
18597;DHT22;9428;50.950;6.912;2024-01-30T12:57:52;12.00;99.90
18597;DHT22;9428;50.950;6.912;2024-01-30T13:00:39;12.00;99.90
18597;DHT22;9428;50.950;6.912;2024-01-30T13:03:32;12.30;99.90
18597;DHT22;9428;50.950;6.912;2024-01-30T13:06:20;12.00;99.90
18597;DHT22;9428;50.950;6.912;2024-01-30T13:09:07;12.00;99.90
18597;DHT22;9428;50.950;6.912;2024-01-30T13:11:55;11.90;99.90
18597;DHT22;9428;50.950;6.912;2024-01-30T13:14:42;11.90;99.90
18597;DHT22;9428;50.950;6.912;2024-01-30T13:17:30;12.00;99.90
18597;DHT22;9428;50.950;6.912;2024-01-30T13:20:19;12.00;99.90
18597;DHT22;9428;50.950;6.912;2024-01-30T13:23:07;12.00;99.90
18597;DHT22;9428;50.950;6.912;2024-01-30T13:25:55;12.00;99.90
18597;DHT22;9428;50.950;6.912;2024-01-30T13:28:44;12.00;99.90
18597;DHT22;9428;50.950;6.912;2024-01-30T13:31:32;12.00;99.90
18597;DHT22;9428;50.950;6.912;2024-01-30T13:34:21;12.00;99.90
18597;DHT22;9428;50.950;6.912;2024-01-30T13:37:10;12.00;99.90
18597;DHT22;9428;50.950;6.912;2024-01-30T13:39:58;12.00;99.90
18597;DHT22;9428;50.950;6.912;2024-01-30T13:42:45;12.10;99.90
18597;DHT22;9428;50.950;6.912;2024-01-30T13:45:33;12.20;99.90
18597;DHT22;9428;50.950;6.912;2024-01-30T13:48:21;11.50;99.90
18597;DHT22;9428;50.950;6.912;2024-01-30T13:51:08;12.30;99.90
18597;DHT22;9428;50.950;6.912;2024-01-30T13:53:58;12.10;99.90
18597;DHT22;9428;50.950;6.912;2024-01-30T13:56:45;12.20;99.90
18597;DHT22;9428;50.950;6.912;2024-01-30T13:59:33;12.10;99.90
18597;DHT22;9428;50.950;6.912;2024-01-30T14:02:20;12.30;99.90
18597;DHT22;9428;50.950;6.912;2024-01-30T14:05:08;12.40;99.90
18597;DHT22;9428;50.950;6.912;2024-01-30T14:07:56;12.30;99.90
18597;DHT22;9428;50.950;6.912;2024-01-30T14:10:46;12.40;99.90
18597;DHT22;9428;50.950;6.912;2024-01-30T14:13:33;12.40;99.90
18597;DHT22;9428;50.950;6.912;2024-01-30T14:16:21;12.40;99.90
18597;DHT22;9428;50.950;6.912;2024-01-30T14:19:08;12.40;99.90
18597;DHT22;9428;50.950;6.912;2024-01-30T14:21:55;12.40;99.90
18597;DHT22;9428;50.950;6.912;2024-01-30T14:24:43;12.40;99.90
18597;DHT22;9428;50.950;6.912;2024-01-30T14:27:32;12.30;99.90
18597;DHT22;9428;50.950;6.912;2024-01-30T14:30:20;12.30;99.90
18597;DHT22;9428;50.950;6.912;2024-01-30T14:33:07;12.30;99.90
18597;DHT22;9428;50.950;6.912;2024-01-30T14:35:54;12.30;99.90
18597;DHT22;9428;50.950;6.912;2024-01-30T14:38:42;12.30;99.90
18597;DHT22;9428;50.950;6.912;2024-01-30T14:41:30;12.00;99.90
18597;DHT22;9428;50.950;6.912;2024-01-30T14:44:19;12.30;99.90
18597;DHT22;9428;50.950;6.912;2024-01-30T14:47:07;12.20;99.90
18597;DHT22;9428;50.950;6.912;2024-01-30T14:49:54;12.20;99.90
18597;DHT22;9428;50.950;6.912;2024-01-30T14:52:42;12.20;99.90
18597;DHT22;9428;50.950;6.912;2024-01-30T14:55:30;12.10;99.90
18597;DHT22;9428;50.950;6.912;2024-01-30T14:58:18;12.10;99.90
18597;DHT22;9428;50.950;6.912;2024-01-30T15:01:08;11.50;99.90
18597;DHT22;9428;50.950;6.912;2024-01-30T15:03:58;12.10;99.90
18597;DHT22;9428;50.950;6.912;2024-01-30T15:06:45;12.10;99.90
18597;DHT22;9428;50.950;6.912;2024-01-30T15:09:34;11.60;99.90
18597;DHT22;9428;50.950;6.912;2024-01-30T15:12:22;11.30;99.90
18597;DHT22;9428;50.950;6.912;2024-01-30T15:15:12;12.10;99.90
18597;DHT22;9428;50.950;6.912;2024-01-30T15:18:01;12.50;99.90
18597;DHT22;9428;50.950;6.912;2024-01-30T15:20:50;12.10;99.90
18597;DHT22;9428;50.950;6.912;2024-01-30T15:23:37;12.10;99.90
18597;DHT22;9428;50.950;6.912;2024-01-30T15:26:25;12.00;99.90
18597;DHT22;9428;50.950;6.912;2024-01-30T15:29:14;12.10;99.90
18597;DHT22;9428;50.950;6.912;2024-01-30T15:32:02;12.00;99.90
18597;DHT22;9428;50.950;6.912;2024-01-30T15:34:53;12.00;99.90
18597;DHT22;9428;50.950;6.912;2024-01-30T15:37:42;12.00;99.90
18597;DHT22;9428;50.950;6.912;2024-01-30T15:40:29;12.00;99.90
18597;DHT22;9428;50.950;6.912;2024-01-30T15:43:18;12.00;99.90
18597;DHT22;9428;50.950;6.912;2024-01-30T15:46:08;12.00;99.90
18597;DHT22;9428;50.950;6.912;2024-01-30T15:48:56;12.00;99.90
18597;DHT22;9428;50.950;6.912;2024-01-30T15:51:45;12.00;99.90
18597;DHT22;9428;50.950;6.912;2024-01-30T15:54:33;11.90;99.90
18597;DHT22;9428;50.950;6.912;2024-01-30T15:57:21;12.00;99.90
18597;DHT22;9428;50.950;6.912;2024-01-30T16:00:09;12.00;99.90
18597;DHT22;9428;50.950;6.912;2024-01-30T16:02:58;11.70;99.90
18597;DHT22;9428;50.950;6.912;2024-01-30T16:05:46;11.80;99.90
18597;DHT22;9428;50.950;6.912;2024-01-30T16:08:34;11.60;99.90
18597;DHT22;9428;50.950;6.912;2024-01-30T16:11:22;11.60;99.90
18597;DHT22;9428;50.950;6.912;2024-01-30T16:14:11;11.50;99.90
18597;DHT22;9428;50.950;6.912;2024-01-30T16:16:58;11.40;99.90
18597;DHT22;9428;50.950;6.912;2024-01-30T16:19:47;11.40;99.90
18597;DHT22;9428;50.950;6.912;2024-01-30T16:22:36;11.30;99.90
18597;DHT22;9428;50.950;6.912;2024-01-30T16:25:25;11.30;99.90
18597;DHT22;9428;50.950;6.912;2024-01-30T16:28:12;11.30;99.90
18597;DHT22;9428;50.950;6.912;2024-01-30T16:31:00;11.30;99.90
18597;DHT22;9428;50.950;6.912;2024-01-30T16:33:48;11.20;99.90
18597;DHT22;9428;50.950;6.912;2024-01-30T16:36:35;11.20;99.90
18597;DHT22;9428;50.950;6.912;2024-01-30T16:39:23;11.20;99.90
18597;DHT22;9428;50.950;6.912;2024-01-30T16:42:11;11.10;99.90
18597;DHT22;9428;50.950;6.912;2024-01-30T16:44:59;11.20;99.90
18597;DHT22;9428;50.950;6.912;2024-01-30T16:47:47;11.00;99.90
18597;DHT22;9428;50.950;6.912;2024-01-30T16:50:34;11.00;99.90
18597;DHT22;9428;50.950;6.912;2024-01-30T16:53:22;11.00;99.90
18597;DHT22;9428;50.950;6.912;2024-01-30T16:56:09;11.00;99.90
18597;DHT22;9428;50.950;6.912;2024-01-30T16:58:58;11.00;99.90
18597;DHT22;9428;50.950;6.912;2024-01-30T17:01:46;10.90;99.90
18597;DHT22;9428;50.950;6.912;2024-01-30T17:04:34;11.00;99.90
18597;DHT22;9428;50.950;6.912;2024-01-30T17:07:22;10.90;99.90
18597;DHT22;9428;50.950;6.912;2024-01-30T17:10:10;10.90;99.90
18597;DHT22;9428;50.950;6.912;2024-01-30T17:13:01;10.90;99.90
18597;DHT22;9428;50.950;6.912;2024-01-30T17:15:50;10.30;99.90
18597;DHT22;9428;50.950;6.912;2024-01-30T17:18:37;10.80;99.90
18597;DHT22;9428;50.950;6.912;2024-01-30T17:21:25;10.90;99.90
18597;DHT22;9428;50.950;6.912;2024-01-30T17:24:13;10.90;99.90
18597;DHT22;9428;50.950;6.912;2024-01-30T17:27:01;10.90;99.90
18597;DHT22;9428;50.950;6.912;2024-01-30T17:29:48;10.80;99.90
18597;DHT22;9428;50.950;6.912;2024-01-30T17:32:37;10.90;99.90
18597;DHT22;9428;50.950;6.912;2024-01-30T17:35:25;10.70;99.90
18597;DHT22;9428;50.950;6.912;2024-01-30T17:38:12;10.90;99.90
18597;DHT22;9428;50.950;6.912;2024-01-30T17:40:59;10.70;99.90
18597;DHT22;9428;50.950;6.912;2024-01-30T17:43:53;10.70;99.90
18597;DHT22;9428;50.950;6.912;2024-01-30T17:46:41;10.70;99.90
18597;DHT22;9428;50.950;6.912;2024-01-30T17:49:30;10.70;99.90
18597;DHT22;9428;50.950;6.912;2024-01-30T17:52:18;10.60;99.90
18597;DHT22;9428;50.950;6.912;2024-01-30T17:55:10;10.60;99.90
18597;DHT22;9428;50.950;6.912;2024-01-30T17:57:57;10.60;99.90
18597;DHT22;9428;50.950;6.912;2024-01-30T18:00:45;10.60;99.90
18597;DHT22;9428;50.950;6.912;2024-01-30T18:03:32;10.60;99.90
18597;DHT22;9428;50.950;6.912;2024-01-30T18:06:23;10.50;99.90
18597;DHT22;9428;50.950;6.912;2024-01-30T18:09:11;10.50;99.90
18597;DHT22;9428;50.950;6.912;2024-01-30T18:11:58;10.50;99.90